This is the latest recevied weather packets stored in our database for station/object DF7ER-12. If no packets are shown the sender has not sent any weather packets the latest 10 day(s).
| Time | Temp. | Humidity | Pressure | Rain* | Wind** | Luminosity | Snow |
|---|---|---|---|---|---|---|---|
| 1777766321 | 17.78° C | 72% | 1003.3 hPa | - | - | - | - |
| 1777766021 | 17.22° C | 75% | 1003.4 hPa | - | - | - | - |
| 1777765721 | 17.78° C | 72% | 1003.4 hPa | - | - | - | - |
| 1777765421 | 17.78° C | 73% | 1003.4 hPa | - | - | - | - |
| 1777765121 | 18.33° C | 72% | 1003.5 hPa | - | - | - | - |
| 1777764821 | 18.33° C | 71% | 1003.4 hPa | - | - | - | - |
| 1777764521 | 17.78° C | 73% | 1003.4 hPa | - | - | - | - |
| 1777764221 | 18.33° C | 71% | 1003.4 hPa | - | - | - | - |
| 1777763921 | 17.22° C | 74% | 1003.4 hPa | - | - | - | - |
| 1777763621 | 17.22° C | 73% | 1003.4 hPa | - | - | - | - |
| 1777763321 | 18.33° C | 71% | 1003.4 hPa | - | - | - | - |
| 1777763021 | 17.78° C | 72% | 1003.4 hPa | - | - | - | - |
| 1777762721 | 18.33° C | 72% | 1003.6 hPa | - | - | - | - |
| 1777762421 | 18.89° C | 70% | 1003.5 hPa | - | - | - | - |
| 1777762121 | 18.89° C | 71% | 1003.5 hPa | - | - | - | - |
| 1777761821 | 18.33° C | 71% | 1003.5 hPa | - | - | - | - |
| 1777761521 | 18.33° C | 72% | 1003.5 hPa | - | - | - | - |
| 1777761221 | 19.44° C | 71% | 1003.5 hPa | - | - | - | - |
| 1777760921 | 18.89° C | 70% | 1003.5 hPa | - | - | - | - |
| 1777760621 | 18.33° C | 71% | 1003.5 hPa | - | - | - | - |
| 1777760321 | 18.89° C | 69% | 1003.6 hPa | - | - | - | - |
| 1777760021 | 18.89° C | 70% | 1003.6 hPa | - | - | - | - |
| 1777759721 | 18.89° C | 69% | 1003.6 hPa | - | - | - | - |
| 1777759421 | 18.89° C | 69% | 1003.6 hPa | - | - | - | - |
| 1777759121 | 18.89° C | 70% | 1003.7 hPa | - | - | - | - |
* Rain since midnight (hover to see other rain measurements)
** Current wind speed in m/s (hover to see current wind gust speed)